Inversion Research: Below Escarpment

*Note: All times are displayed in the local standard time of the station location.
**Rain - Equipment is designed to accurately record liquid precipitation; under conditions when precipitation is not in liquid form, the data displayed may not properly reflect rainfall values.

Date Max Temp
(°C)
Min Temp
(°C)
Avg Temp
(°C)
Rain (mm) Avg RH (%)
Fri, Jun 22, 2018 21.7 8.0 16.4 - 85.9
Thu, Jun 21, 2018 22.8 12.9 17.6 - 73.0
Wed, Jun 20, 2018 24.9 13.2 18.7 - 81.4
Tue, Jun 19, 2018 23.4 16.4 19.9 - 80.6
Mon, Jun 18, 2018 33.2 21.2 26.2 - 86.5
Sun, Jun 17, 2018 33.3 14.5 25.0 - 66.0
Sat, Jun 16, 2018 29.9 12.6 22.1 - 62.0
DateTime Avg Temp (°C) Rain (mm) RH (%)
Sat, Jun 23, 2018 09:00 17.6 - 100.0
Sat, Jun 23, 2018 08:00 17.2 - 100.0
Sat, Jun 23, 2018 07:00 17.5 - 100.0
Sat, Jun 23, 2018 06:00 17.7 - 100.0
Sat, Jun 23, 2018 05:00 17.8 - 100.0
Sat, Jun 23, 2018 04:00 18.0 - 100.0
Sat, Jun 23, 2018 03:00 18.3 - 100.0
Sat, Jun 23, 2018 02:00 18.5 - 100.0
Sat, Jun 23, 2018 01:00 18.0 - 100.0
Sat, Jun 23, 2018 00:00 18.3 - 100.0
Fri, Jun 22, 2018 23:00 18.7 - 100.0
Fri, Jun 22, 2018 22:00 19.4 - 97.5
Fri, Jun 22, 2018 21:00 20.4 - 88.5
Fri, Jun 22, 2018 20:00 20.1 - 91.8
Fri, Jun 22, 2018 19:00 19.5 - 93.0
Fri, Jun 22, 2018 18:00 18.9 - 92.5
Fri, Jun 22, 2018 17:00 18.2 - 86.0
Fri, Jun 22, 2018 16:00 19.5 - 72.8
Fri, Jun 22, 2018 15:00 19.9 - 73.0
Fri, Jun 22, 2018 14:00 21.2 - 69.3
Fri, Jun 22, 2018 13:00 20.4 - 70.8
Fri, Jun 22, 2018 12:00 20.4 - 63.0
Fri, Jun 22, 2018 11:00 20.2 - 64.8
Fri, Jun 22, 2018 10:00 19.1 - 62.5
Fri, Jun 22, 2018 09:00 16.8 - 66.5
Fri, Jun 22, 2018 08:00 14.1 - 83.3
Fri, Jun 22, 2018 07:00 12.0 - 96.8
Fri, Jun 22, 2018 06:00 8.5 - 100.0
Fri, Jun 22, 2018 05:00 8.2 - 100.0
Fri, Jun 22, 2018 04:00 8.7 - 100.0
Fri, Jun 22, 2018 03:00 9.3 - 100.0
Fri, Jun 22, 2018 02:00 10.2 - 100.0
Fri, Jun 22, 2018 01:00 11.5 - 89.8
Fri, Jun 22, 2018 00:00 13.8 - 73.5
Thu, Jun 21, 2018 23:00 14.2 - 74.0
Thu, Jun 21, 2018 22:00 17.1 - 56.5
Thu, Jun 21, 2018 21:00 19.1 - 49.3
Thu, Jun 21, 2018 20:00 21.3 - 43.0
Thu, Jun 21, 2018 19:00 22.1 - 36.8
Thu, Jun 21, 2018 18:00 22.5 - 39.8
Thu, Jun 21, 2018 17:00 22.5 - 46.3
Thu, Jun 21, 2018 16:00 20.9 - 56.8
Thu, Jun 21, 2018 15:00 19.9 - 62.5
Thu, Jun 21, 2018 14:00 19.1 - 67.5
Thu, Jun 21, 2018 13:00 19.4 - 68.5
Thu, Jun 21, 2018 12:00 18.8 - 71.8
Thu, Jun 21, 2018 11:00 18.6 - 74.8
Thu, Jun 21, 2018 10:00 18.1 - 76.5


asterix Register now to access more data! asterix